createdAt,value
2022-09-22T00:02:00.645Z,37.50
2022-09-22T00:07:20.889Z,37.90
2022-09-22T00:12:41.024Z,38.10
2022-09-22T00:18:01.247Z,38.20
2022-09-22T00:23:21.293Z,38.40
2022-09-22T00:28:41.502Z,38.50
2022-09-22T00:34:01.567Z,38.70
2022-09-22T00:39:21.718Z,38.80
2022-09-22T00:44:41.777Z,38.90
2022-09-22T00:50:01.848Z,38.90
2022-09-22T00:55:22.007Z,39.10
2022-09-22T01:00:42.101Z,39.10
2022-09-22T01:06:02.112Z,39.10
2022-09-22T01:11:22.255Z,39.10
2022-09-22T01:16:42.392Z,39.20
2022-09-22T01:22:02.590Z,39.30
2022-09-22T01:27:22.777Z,39.20
2022-09-22T01:32:42.891Z,39.20
2022-09-22T01:38:02.996Z,39.20
2022-09-22T01:43:23.143Z,39.20
2022-09-22T01:48:43.251Z,39.20
2022-09-22T01:54:03.359Z,39.30
2022-09-22T01:59:23.575Z,39.30
2022-09-22T02:04:43.685Z,39.40
2022-09-22T02:10:03.792Z,39.40
2022-09-22T02:15:23.945Z,39.40
2022-09-22T02:20:44.111Z,39.50
2022-09-22T02:26:04.134Z,39.50
2022-09-22T02:31:24.461Z,39.40
2022-09-22T02:36:44.484Z,39.40
2022-09-22T02:42:04.682Z,39.50
2022-09-22T02:47:24.750Z,39.40
2022-09-22T02:52:44.954Z,39.30
2022-09-22T02:58:05.167Z,39.40
2022-09-22T03:03:25.307Z,39.40
2022-09-22T03:08:45.315Z,39.40
2022-09-22T03:14:05.398Z,39.40
2022-09-22T03:19:25.445Z,39.30
2022-09-22T03:24:45.522Z,39.40
2022-09-22T03:30:05.724Z,39.30
2022-09-22T03:35:25.878Z,39.40
2022-09-22T03:40:46.054Z,39.30
2022-09-22T03:46:06.373Z,39.30
2022-09-22T03:51:26.505Z,39.30
2022-09-22T03:56:46.733Z,39.30
2022-09-22T04:02:06.870Z,39.30
2022-09-22T04:07:27.312Z,39.30
2022-09-22T04:12:47.406Z,39.40
2022-09-22T04:18:07.750Z,39.40
2022-09-22T04:23:27.884Z,39.40
2022-09-22T04:28:48.153Z,39.30
2022-09-22T04:34:08.127Z,39.40
2022-09-22T04:39:28.304Z,39.40
2022-09-22T04:44:48.386Z,39.50
2022-09-22T04:50:09.416Z,39.40
2022-09-22T04:55:29.470Z,39.40
2022-09-22T05:00:49.652Z,39.40
2022-09-22T05:06:09.540Z,39.40
2022-09-22T05:11:29.798Z,39.50
2022-09-22T05:16:50.033Z,39.40
2022-09-22T05:22:10.251Z,39.40
2022-09-22T05:27:30.336Z,39.50
2022-09-22T05:32:50.551Z,39.50
2022-09-22T05:38:10.647Z,39.50
2022-09-22T05:43:30.893Z,39.40
2022-09-22T05:48:51.007Z,39.50
2022-09-22T05:54:11.048Z,39.40
2022-09-22T05:59:31.193Z,39.40
2022-09-22T06:04:51.371Z,39.40
2022-09-22T06:10:11.597Z,39.40
2022-09-22T06:15:31.674Z,39.40
2022-09-22T06:20:51.856Z,39.40
2022-09-22T06:26:12.047Z,39.40
2022-09-22T06:31:32.264Z,39.40
2022-09-22T06:36:52.270Z,39.50
2022-09-22T06:42:12.398Z,39.40
2022-09-22T06:47:32.639Z,39.40
2022-09-22T06:52:52.773Z,39.40
2022-09-22T06:58:12.938Z,39.40
2022-09-22T07:03:33.148Z,39.30
2022-09-22T07:08:53.293Z,39.50
2022-09-22T07:14:13.416Z,39.30
2022-09-22T07:19:33.568Z,39.30
2022-09-22T07:24:53.802Z,39.40
2022-09-22T07:30:13.861Z,39.40
2022-09-22T07:35:34.079Z,39.50
2022-09-22T07:40:54.223Z,39.50
2022-09-22T07:46:14.562Z,39.40
2022-09-22T07:51:34.725Z,39.40
2022-09-22T07:56:55.979Z,39.50
2022-09-22T08:02:16.139Z,39.40
2022-09-22T08:07:36.306Z,39.40
2022-09-22T08:12:56.488Z,39.40
2022-09-22T08:18:16.664Z,39.40
2022-09-22T08:23:36.831Z,39.40
2022-09-22T08:28:56.957Z,39.50
2022-09-22T08:34:17.170Z,39.40
2022-09-22T08:39:37.316Z,39.40
2022-09-22T08:44:57.437Z,39.40
2022-09-22T08:50:17.667Z,39.40
2022-09-22T08:55:37.788Z,39.40
2022-09-22T09:00:58.038Z,39.50
2022-09-22T09:06:18.083Z,39.30
2022-09-22T09:11:38.262Z,39.50
2022-09-22T09:16:58.322Z,39.40
2022-09-22T09:22:18.539Z,39.30
2022-09-22T09:27:38.739Z,39.30
2022-09-22T09:32:59.083Z,39.40
2022-09-22T09:38:19.216Z,39.40
2022-09-22T09:43:39.235Z,39.30
2022-09-22T09:48:59.302Z,39.30
2022-09-22T09:54:19.446Z,39.40
2022-09-22T09:59:39.494Z,39.40
2022-09-22T10:04:59.724Z,39.30
2022-09-22T10:10:19.856Z,39.30
2022-09-22T10:15:40.041Z,39.40
2022-09-22T10:21:00.090Z,39.40
2022-09-22T10:26:20.254Z,39.30
2022-09-22T10:31:40.373Z,39.40
2022-09-22T10:37:00.558Z,39.40
2022-09-22T10:42:20.737Z,39.30
2022-09-22T10:47:40.958Z,39.40
2022-09-22T10:53:01.111Z,39.40
2022-09-22T10:58:21.275Z,39.40
2022-09-22T11:03:41.419Z,39.40
2022-09-22T11:09:01.612Z,39.40
2022-09-22T11:14:21.676Z,39.40
2022-09-22T11:19:41.842Z,39.40
2022-09-22T11:25:01.972Z,39.40
2022-09-22T11:30:22.167Z,39.40
2022-09-22T11:35:42.350Z,39.30
2022-09-22T11:41:02.563Z,39.30
2022-09-22T11:46:22.801Z,39.30
2022-09-22T11:51:42.963Z,39.30
2022-09-22T11:57:03.031Z,39.30
2022-09-22T12:02:23.302Z,39.30
2022-09-22T12:07:43.323Z,39.20
2022-09-22T12:13:03.561Z,39.30
2022-09-22T12:18:23.679Z,39.20
2022-09-22T12:23:45.331Z,39.20
2022-09-22T12:29:07.883Z,39.20
2022-09-22T12:34:28.110Z,39.20
2022-09-22T12:39:48.128Z,39.30
2022-09-22T12:45:08.322Z,39.20
2022-09-22T12:50:28.478Z,39.20
2022-09-22T12:55:48.644Z,39.20
2022-09-22T13:01:08.809Z,39.20
2022-09-22T13:06:28.851Z,39.20
2022-09-22T13:11:48.996Z,39.20
2022-09-22T13:17:09.303Z,39.10
2022-09-22T13:22:29.512Z,39.20
2022-09-22T13:27:49.754Z,39.10
2022-09-22T13:33:09.743Z,39.20
2022-09-22T13:38:29.897Z,39.10
2022-09-22T13:43:50.175Z,39.10
2022-09-22T13:49:10.388Z,39.10
2022-09-22T13:54:30.606Z,39.10
2022-09-22T13:59:50.660Z,39.10
2022-09-22T14:05:10.790Z,39.10
2022-09-22T14:10:30.902Z,39.10
2022-09-22T14:15:51.076Z,39.10
2022-09-22T14:21:11.284Z,39.10
2022-09-22T14:26:31.398Z,39.00
2022-09-22T14:31:51.745Z,39.10
2022-09-22T14:37:11.783Z,39.10
2022-09-22T14:42:31.974Z,39.00
2022-09-22T14:47:52.118Z,39.00
2022-09-22T14:53:12.340Z,39.10
2022-09-22T14:58:32.516Z,39.10
2022-09-22T15:03:52.637Z,39.10
2022-09-22T15:09:12.673Z,39.10
2022-09-22T15:14:32.786Z,39.10
2022-09-22T15:19:52.975Z,39.10
2022-09-22T15:25:13.211Z,39.10
2022-09-22T15:30:33.570Z,39.10
2022-09-22T15:35:53.749Z,39.00
2022-09-22T15:41:13.939Z,39.00
2022-09-22T15:46:34.269Z,39.00
2022-09-22T15:51:54.554Z,39.00
2022-09-22T15:57:14.717Z,39.00
2022-09-22T16:02:34.924Z,39.00
2022-09-22T16:07:55.058Z,39.00
2022-09-22T16:13:15.177Z,39.00
2022-09-22T16:18:35.320Z,39.00
2022-09-22T16:23:55.713Z,39.00
2022-09-22T16:29:16.010Z,39.00
2022-09-22T16:34:36.090Z,39.00
2022-09-22T16:39:56.216Z,39.10
2022-09-22T16:45:16.358Z,39.00
2022-09-22T16:50:36.323Z,39.10
2022-09-22T16:55:56.299Z,39.10
2022-09-22T17:01:19.545Z,39.10
2022-09-22T17:06:40.171Z,39.10
2022-09-22T17:12:00.400Z,39.10
2022-09-22T17:17:20.483Z,39.10
2022-09-22T17:22:40.702Z,39.10
2022-09-22T17:28:00.818Z,39.10
2022-09-22T17:33:21.133Z,39.10
2022-09-22T17:38:41.683Z,39.10
2022-09-22T17:44:02.018Z,39.10
2022-09-22T17:49:22.045Z,39.20
2022-09-22T17:54:42.181Z,39.20
2022-09-22T18:00:02.499Z,39.30
2022-09-22T18:05:22.845Z,39.20
2022-09-22T18:10:42.968Z,39.30
2022-09-22T18:16:03.096Z,39.30
2022-09-22T18:21:23.219Z,39.40
2022-09-22T18:26:43.347Z,39.40
2022-09-22T18:32:03.571Z,39.40
2022-09-22T18:37:23.654Z,39.50
2022-09-22T18:42:43.793Z,41.20
2022-09-22T18:48:03.842Z,40.20
2022-09-22T18:53:24.044Z,40.00
2022-09-22T18:58:44.264Z,39.90
2022-09-22T19:04:04.412Z,39.80
2022-09-22T19:09:24.527Z,39.80
2022-09-22T19:14:44.717Z,39.80
2022-09-22T19:20:04.793Z,39.90
2022-09-22T19:25:25.050Z,39.90
2022-09-22T19:30:45.194Z,39.90
2022-09-22T19:36:05.335Z,39.90
2022-09-22T19:41:25.452Z,39.90
2022-09-22T19:46:45.617Z,39.90
2022-09-22T19:52:05.572Z,39.90
2022-09-22T19:57:25.744Z,39.80
2022-09-22T20:02:45.875Z,39.80
2022-09-22T20:08:05.955Z,39.80
2022-09-22T20:13:26.087Z,39.80
2022-09-22T20:18:46.200Z,39.80
2022-09-22T20:24:06.202Z,39.80
2022-09-22T20:29:26.371Z,39.80
2022-09-22T20:34:46.527Z,39.90
2022-09-22T20:40:07.452Z,39.90
2022-09-22T20:45:27.851Z,40.00
2022-09-22T20:50:48.037Z,39.90
2022-09-22T20:56:08.050Z,40.00
2022-09-22T21:01:28.320Z,40.00
2022-09-22T21:06:48.252Z,40.00
2022-09-22T21:12:08.485Z,40.00
2022-09-22T21:17:28.535Z,40.00
2022-09-22T21:22:48.671Z,40.00
2022-09-22T21:28:08.819Z,40.00
2022-09-22T21:33:29.137Z,40.00
2022-09-22T21:38:49.347Z,40.00
2022-09-22T21:44:09.577Z,40.10
2022-09-22T21:49:29.762Z,40.00
2022-09-22T21:54:49.993Z,40.00
2022-09-22T22:00:10.127Z,40.00
2022-09-22T22:05:30.205Z,40.10
2022-09-22T22:10:50.388Z,40.10
2022-09-22T22:16:10.543Z,40.10
2022-09-22T22:21:30.508Z,40.10
2022-09-22T22:26:50.674Z,40.10
2022-09-22T22:32:10.854Z,40.10
2022-09-22T22:37:31.010Z,40.10
2022-09-22T22:42:51.193Z,40.10
2022-09-22T22:48:11.446Z,40.00
2022-09-22T22:53:31.443Z,40.00
2022-09-22T22:58:51.533Z,40.10
2022-09-22T23:04:11.581Z,40.00
2022-09-22T23:09:31.703Z,40.10
2022-09-22T23:14:51.779Z,40.00
2022-09-22T23:20:11.997Z,40.00
2022-09-22T23:25:32.150Z,40.10
2022-09-22T23:30:52.416Z,40.10
2022-09-22T23:36:12.434Z,40.10
2022-09-22T23:41:32.734Z,40.10
2022-09-22T23:46:52.699Z,40.10
2022-09-22T23:52:12.936Z,40.10
2022-09-22T23:57:33.125Z,40.10
